Nearby METAR Reports

 

KPBI - West Palm Beach, Florida, USA
Distance from station: NNE 9mi, 14km
Updated: Tue, 11-May-2021 6:53pm EDT
Mostly cloudy
Mostly cloudy
 Wind from SE
Wind: SE 9 mph , 15 km/h
Temperature: 84°F , 29°C
Heat Index: 89°F , 32°C
Dew Point: 72°F , 22°C
Humidity: 66%
Barometer: 30.03 inHg , 1016.9 hPa
Clouds: Mostly cloudy
Visibility: 10 miles , 16 km
Cloud details: Partly cloudy 3500 ft
Partly cloudy 10000 ft
Mostly cloudy 24000 ft
2021/05/11 22:53 KPBI 112253Z 14008KT 10SM SCT035 SCT100 BKN240 29/22 A3003 RMK AO2 SLP169 T02890217
KBCT - Boca Raton, Florida, USA
Distance from station: SSE 13mi, 21km
Updated: Tue, 11-May-2021 6:47pm EDT
Clear
Clear
 Wind from ESE
Wind: ESE 12 mph , 19 km/h
Temperature: 84°F , 29°C
Heat Index: 89°F , 32°C
Dew Point: 72°F , 22°C
Humidity: 66%
Barometer: 30.02 inHg , 1016.6 hPa
Clouds: Clear
Visibility: 10 miles , 16 km
2021/05/11 22:47 KBCT 112247Z 12010KT 10SM CLR 29/22 A3002
 
KPMP - Pompano Beach, Florida, USA
Distance from station: S 22mi, 36km
Updated: Tue, 11-May-2021 6:53pm EDT
Mostly cloudy
Mostly cloudy
 Wind from ESE
Wind: ESE 12 mph , 19 km/h
Temperature: 82°F , 28°C
Heat Index: 86°F , 30°C
Dew Point: 70°F , 21°C
Humidity: 66%
Barometer: 30.02 inHg , 1016.6 hPa
Clouds: Mostly cloudy
Visibility: 10 miles , 16 km
Cloud details: Partly cloudy 3000 ft
Mostly cloudy 18000 ft
Mostly cloudy 25000 ft
2021/05/11 22:53 KPMP 112253Z 12010KT 10SM SCT030 BKN180 BKN250 28/21 A3002 RMK AO2 SLP165 T02780211
KFXE - Ft Lauderd/Exec, Florida, USA
Distance from station: S 25mi, 41km
Updated: Tue, 11-May-2021 6:53pm EDT
Clear
Clear
 Wind from ESE
Wind: ESE 12 mph , 19 km/h
Temperature: 84°F , 29°C
Heat Index: 88°F , 31°C
Dew Point: 70°F , 21°C
Humidity: 62%
Barometer: 30.01 inHg , 1016.3 hPa
Clouds: Clear
Visibility: 10 miles , 16 km
2021/05/11 22:53 KFXE 112253Z 11010KT 10SM CLR 29/21 A3001 RMK AO2 SLP165 T02890206
 
KFLL - Ft Lauderd/Holly, Florida, USA
Distance from station: S 35mi, 56km
Updated: Tue, 11-May-2021 6:53pm EDT
Mostly cloudy
Mostly cloudy
 Wind from SE
Wind: SE 13 mph , 20 km/h
Temperature: 84°F , 29°C
Heat Index: 90°F , 32°C
Dew Point: 73°F , 23°C
Humidity: 70%
Barometer: 30.01 inHg , 1016.3 hPa
Clouds: Mostly cloudy
Visibility: 10 miles , 16 km
Cloud details: Few Clouds 3500 ft
Few Clouds 6000 ft
Partly cloudy 16000 ft
Mostly cloudy 25000 ft
2021/05/11 22:53 KFLL 112253Z 13011KT 10SM FEW035 FEW060 SCT160 BKN250 29/23 A3001 RMK AO2 SLP161 CB DSNT NW T02890228
KHWO - Hollywood, Florida, USA
Distance from station: S 39mi, 64km
Updated: Tue, 11-May-2021 6:53pm EDT
Clear
Clear
 Wind from SE
Wind: SE 12 mph , 19 km/h
Temperature: 82°F , 28°C
Heat Index: 86°F , 30°C
Dew Point: 70°F , 21°C
Humidity: 66%
Barometer: 30.03 inHg , 1016.9 hPa
Clouds: Clear
Visibility: 10 miles , 16 km
2021/05/11 22:53 KHWO 112253Z 13010KT 10SM CLR 28/21 A3003 RMK AO2 SLP167 T02830211
 
KSUA - Stuart/Witham, Florida, USA
Distance from station: N 43mi, 69km
Updated: Tue, 11-May-2021 6:47pm EDT
Partly cloudy
Partly cloudy
 Wind from ESE
Wind: ESE 9 mph , 15 km/h
Temperature: 82°F , 28°C
Heat Index: 86°F , 30°C
Dew Point: 72°F , 22°C
Humidity: 70%
Barometer: 30.04 inHg , 1017.3 hPa
Clouds: Partly cloudy
Visibility: 7 miles , 11 km
Cloud details: Partly cloudy 3000 ft
2021/05/11 22:47 KSUA 112247Z 12008KT 7SM SCT030 28/22 A3004
KOPF - Miami/Opa Locka, Florida, USA
Distance from station: S 46mi, 73km
Updated: Tue, 11-May-2021 6:53pm EDT
Clear
Clear
 Wind from ESE
Wind: ESE 10 mph , 17 km/h
Temperature: 84°F , 29°C
Heat Index: 88°F , 31°C
Dew Point: 70°F , 21°C
Humidity: 62%
Barometer: 30.02 inHg , 1016.6 hPa
Clouds: Clear
Visibility: 10 miles , 16 km
2021/05/11 22:53 KOPF 112253Z 12009KT 10SM CLR 29/21 A3002 RMK AO2 SLP165 T02890211
 
KMIA - Miami, Florida, USA
Distance from station: S 54mi, 86km
Updated: Tue, 11-May-2021 6:53pm EDT
Mostly cloudy
Mostly cloudy
 Wind from ESE
Wind: ESE 9 mph , 15 km/h
Temperature: 84°F , 29°C
Heat Index: 89°F , 32°C
Dew Point: 72°F , 22°C
Humidity: 66%
Barometer: 30.01 inHg , 1016.3 hPa
Clouds: Mostly cloudy
Visibility: 10 miles , 16 km
Cloud details: Few Clouds 3000 ft
Few Clouds 15000 ft
Mostly cloudy 25000 ft
2021/05/11 22:53 KMIA 112253Z 11008KT 10SM FEW030 FEW150 BKN250 29/22 A3001 RMK AO2 SLP163 CB DSNT W AND NW T02890217 $
KOBE - Okeechobee Cty, Florida, USA
Distance from station: NW 64mi, 104km
Updated: Tue, 11-May-2021 6:55pm EDT
Clear
Clear
 Wind from ESE
Wind: ESE 7 mph , 11 km/h
Temperature: 81°F , 27°C
Heat Index: 83°F , 28°C
Dew Point: 66°F , 19°C
Humidity: 62%
Barometer: 30.01 inHg , 1016.3 hPa
Clouds: Clear
2021/05/11 22:55 KOBE 112255Z AUTO 12006KT CLR 27/19 A3001 RMK AO2
 
KFPR - Fort Pierce, Florida, USA
Distance from station: NNW 66mi, 106km
Updated: Tue, 11-May-2021 6:53pm EDT
Clear
Clear
 Wind from ESE
Wind: ESE 8 mph , 13 km/h
Temperature: 82°F , 28°C
Heat Index: 85°F , 29°C
Dew Point: 68°F , 20°C
Humidity: 62%
Barometer: 30.03 inHg , 1016.9 hPa
Clouds: Clear
Visibility: 10 miles , 16 km
2021/05/11 22:53 KFPR 112253Z 11007KT 10SM CLR 28/20 A3003 RMK AO2 SLP167 T02780200
KTMB - Miami/Tamiami, Florida, USA
Distance from station: SSW 66mi, 106km
Updated: Tue, 11-May-2021 6:53pm EDT
Clear
Clear
 Wind from ESE
Wind: ESE 9 mph , 15 km/h
Temperature: 84°F , 29°C
Heat Index: 89°F , 32°C
Dew Point: 72°F , 22°C
Humidity: 66%
Barometer: 30.01 inHg , 1016.3 hPa
Clouds: Clear
Visibility: 10 miles , 16 km
2021/05/11 22:53 KTMB 112253Z 12008KT 10SM CLR 29/22 A3001 RMK AO2 SLP160 T02940217
 
KVRB - Vero Beach, Florida, USA
Distance from station: NNW 76mi, 123km
Updated: Tue, 11-May-2021 6:53pm EDT
Clear
Clear
 Wind from E
Wind: E 8 mph , 13 km/h
Temperature: 82°F , 28°C
Heat Index: 86°F , 30°C
Dew Point: 72°F , 22°C
Humidity: 70%
Barometer: 30.03 inHg , 1016.9 hPa
Clouds: Clear
Visibility: 10 miles , 16 km
2021/05/11 22:53 KVRB 112253Z 10007KT 10SM CLR 28/22 A3003 RMK AO2 SLP167 T02780222
KHST - Homestead Afb, Florida, USA
Distance from station: S 77mi, 124km
Updated: Tue, 11-May-2021 6:56pm EDT
Clear
Clear
 Wind from E
Wind: E 8 mph , 13 km/h
Temperature: 84°F , 29°C
Heat Index: 90°F , 32°C
Dew Point: 73°F , 23°C
Humidity: 70%
Barometer: 30.00 inHg , 1015.9 hPa
Clouds: Clear
Visibility: 10 miles , 16 km
2021/05/11 22:56 KHST 112256Z AUTO 09007KT 10SM CLR 29/23 A3000 RMK AO2 SLP162 T02890231
 
KIMM - Immokalee, Florida, USA
Distance from station: W 77mi, 124km
Updated: Tue, 11-May-2021 6:55pm EDT
Partly cloudy
Partly cloudy
 Wind from W
Wind: W 5 mph , 7 km/h
Temperature: 81°F , 27°C
Heat Index: 85°F , 29°C
Dew Point: 72°F , 22°C
Humidity: 74%
Barometer: 29.99 inHg , 1015.6 hPa
Clouds: Partly cloudy
Visibility: 10 miles , 16 km
Cloud details: Partly cloudy 10000 ft
2021/05/11 22:55 KIMM 112255Z AUTO 28004KT 10SM SCT100 27/22 A2999 RMK AO2 PWINO
MYGF - Freeport Intl A, Bahamas
Distance from station: E 90mi, 145km
Updated: Tue, 11-May-2021 7:00pm EDT
Mostly cloudy
Mostly cloudy
 Wind from SE
Wind: SE 7 mph , 11 km/h
Temperature: 82°F , 28°C
Heat Index: 86°F , 30°C
Dew Point: 72°F , 22°C
Humidity: 70%
Barometer: 30.04 inHg , 1017.3 hPa
Clouds: Mostly cloudy
Visibility: 6 miles , 10 km
Cloud details: Partly cloudy 2500 ft
Mostly cloudy 25000 ft
2021/05/11 23:00 MYGF 112300Z 14006KT 9999 SCT025 BKN250 28/22 A3004
 
KSEF - Sebring, Florida, USA
Distance from station: NW 95mi, 153km
Updated: Tue, 11-May-2021 6:55pm EDT
Clear
Clear
 Wind from E
Wind: E 10 mph , 17 km/h
Temperature: 86°F , 30°C
Heat Index: 91°F , 33°C
Dew Point: 70°F , 21°C
Humidity: 59%
Barometer: 30.02 inHg , 1016.6 hPa
Clouds: Clear
Visibility: 10 miles , 16 km
2021/05/11 22:55 KSEF 112255Z AUTO 10009KT 10SM CLR 30/21 A3002 RMK AO2 T03030210
KRSW - Fort Myers, Florida, USA
Distance from station: W 98mi, 158km
Updated: Tue, 11-May-2021 6:53pm EDT
Clear
Clear
 Wind from SE
Wind: SE 7 mph , 11 km/h
Temperature: 82°F , 28°C
Heat Index: 85°F , 29°C
Dew Point: 68°F , 20°C
Humidity: 62%
Barometer: 30.01 inHg , 1016.3 hPa
Clouds: Clear
Visibility: 10 miles , 16 km
2021/05/11 22:53 KRSW 112253Z 13006KT 10SM CLR 28/20 A3001 RMK AO2 LTG DSNT N AND NE SLP160 T02830200